createdAt,value
2022-08-01T00:04:57.186Z,17.30
2022-08-01T00:09:59.936Z,17.40
2022-08-01T00:15:02.892Z,17.50
2022-08-01T00:20:07.671Z,17.50
2022-08-01T00:25:10.727Z,17.50
2022-08-01T00:30:14.815Z,17.50
2022-08-01T00:35:18.133Z,17.50
2022-08-01T00:40:20.816Z,17.50
2022-08-01T00:45:23.504Z,17.40
2022-08-01T00:50:26.271Z,17.30
2022-08-01T00:55:30.268Z,17.20
2022-08-01T01:00:52.880Z,17.00
2022-08-01T01:06:20.065Z,16.90
2022-08-01T01:11:29.791Z,16.80
2022-08-01T01:16:34.756Z,16.90
2022-08-01T01:21:43.894Z,16.80
2022-08-01T01:27:22.602Z,16.90
2022-08-01T01:32:36.543Z,16.90
2022-08-01T01:37:41.792Z,16.90
2022-08-01T01:42:45.261Z,16.70
2022-08-01T01:47:48.991Z,16.70
2022-08-01T01:52:53.278Z,16.60
2022-08-01T01:57:58.130Z,16.50
2022-08-01T02:03:03.810Z,16.60
2022-08-01T02:08:08.279Z,16.50
2022-08-01T02:13:12.133Z,16.60
2022-08-01T02:18:16.231Z,16.50
2022-08-01T02:23:19.546Z,16.50
2022-08-01T02:28:29.329Z,16.40
2022-08-01T02:33:38.828Z,16.50
2022-08-01T02:38:47.218Z,16.60
2022-08-01T02:43:53.699Z,16.70
2022-08-01T02:48:59.548Z,16.80
2022-08-01T02:54:06.110Z,16.70
2022-08-01T02:59:16.187Z,16.70
2022-08-01T03:04:24.678Z,16.70
2022-08-01T03:09:30.922Z,16.70
2022-08-01T03:14:37.943Z,16.80
2022-08-01T03:19:42.292Z,16.70
2022-08-01T03:24:48.314Z,16.70
2022-08-01T03:29:57.276Z,16.80
2022-08-01T03:34:59.944Z,16.80
2022-08-01T03:40:07.478Z,16.90
2022-08-01T03:45:15.929Z,16.80
2022-08-01T03:50:22.531Z,16.80
2022-08-01T03:55:26.415Z,16.90
2022-08-01T04:00:29.870Z,16.90
2022-08-01T04:05:32.639Z,16.80
2022-08-01T04:10:35.687Z,16.80
2022-08-01T04:15:38.588Z,16.80
2022-08-01T04:20:41.147Z,16.90
2022-08-01T04:25:45.793Z,17.00
2022-08-01T04:30:51.423Z,17.10
2022-08-01T04:36:03.889Z,17.10
2022-08-01T04:41:11.073Z,17.00
2022-08-01T04:46:15.465Z,17.20
2022-08-01T04:51:19.423Z,17.30
2022-08-01T04:56:22.333Z,17.40
2022-08-01T05:01:25.052Z,17.30
2022-08-01T05:06:27.694Z,17.50
2022-08-01T05:11:30.278Z,17.50
2022-08-01T05:16:32.835Z,17.50
2022-08-01T05:21:36.025Z,17.60
2022-08-01T05:26:38.767Z,17.80
2022-08-01T05:31:41.329Z,17.90
2022-08-01T05:36:44.241Z,17.90
2022-08-01T05:41:47.335Z,17.80
2022-08-01T05:46:49.959Z,17.90
2022-08-01T05:51:53.812Z,17.90
2022-08-01T05:57:00.598Z,17.90
2022-08-01T06:02:03.863Z,17.90
2022-08-01T06:07:06.874Z,18.00
2022-08-01T06:12:09.811Z,18.00
2022-08-01T06:17:12.523Z,18.10
2022-08-01T06:22:18.223Z,18.10
2022-08-01T06:27:21.547Z,18.30
2022-08-01T06:32:27.300Z,18.40
2022-08-01T06:37:33.792Z,18.60
2022-08-01T06:42:37.186Z,18.60
2022-08-01T06:47:41.032Z,18.60
2022-08-01T06:52:43.619Z,18.60
2022-08-01T06:57:50.966Z,18.90
2022-08-01T07:02:55.924Z,19.10
2022-08-01T07:07:58.969Z,19.10
2022-08-01T07:13:01.831Z,19.20
2022-08-01T07:18:05.932Z,19.30
2022-08-01T07:23:08.918Z,19.30
2022-08-01T07:28:16.214Z,19.40
2022-08-01T07:33:19.185Z,19.50
2022-08-01T07:38:24.862Z,19.60
2022-08-01T07:43:27.633Z,19.60
2022-08-01T07:48:30.537Z,19.70
2022-08-01T07:53:33.284Z,19.60
2022-08-01T07:58:36.158Z,19.50
2022-08-01T08:03:38.975Z,19.60
2022-08-01T08:08:41.936Z,19.80
2022-08-01T08:13:44.709Z,19.90
2022-08-01T08:18:47.656Z,20.10
2022-08-01T08:24:09.425Z,20.10
2022-08-01T08:29:15.782Z,20.20
2022-08-01T08:34:18.896Z,20.40
2022-08-01T08:39:23.036Z,20.60
2022-08-01T08:44:25.981Z,20.80
2022-08-01T08:49:36.058Z,21.20
2022-08-01T08:54:42.079Z,21.60
2022-08-01T08:59:45.491Z,21.90
2022-08-01T09:04:50.411Z,22.30
2022-08-01T09:09:53.207Z,22.40
2022-08-01T09:14:56.461Z,23.00
2022-08-01T09:19:59.290Z,23.40
2022-08-01T09:25:11.863Z,24.10
2022-08-01T09:30:23.406Z,24.40
2022-08-01T09:35:30.252Z,25.30
2022-08-01T09:40:59.043Z,25.50
2022-08-01T09:46:12.546Z,26.00
2022-08-01T09:51:58.917Z,26.60
2022-08-01T09:57:18.179Z,26.30
2022-08-01T10:02:36.160Z,26.00
2022-08-01T10:07:58.036Z,26.50
2022-08-01T10:13:01.574Z,26.60
2022-08-01T10:18:16.400Z,26.90
2022-08-01T10:23:39.907Z,27.20
2022-08-01T10:28:49.180Z,27.30
2022-08-01T10:33:53.446Z,27.20
2022-08-01T10:38:56.921Z,27.20
2022-08-01T10:44:00.251Z,27.10
2022-08-01T10:49:08.897Z,27.20
2022-08-01T10:54:13.636Z,27.90
2022-08-01T10:59:50.351Z,27.30
2022-08-01T12:06:35.256Z,24.80
2022-08-01T12:11:39.566Z,24.40
2022-08-01T12:16:48.795Z,24.70
2022-08-01T12:22:12.139Z,24.90
2022-08-01T12:27:29.101Z,25.20
2022-08-01T12:32:36.237Z,25.30
2022-08-01T12:37:44.775Z,25.20
2022-08-01T12:42:50.179Z,25.70
2022-08-01T12:47:54.362Z,26.10
2022-08-01T12:52:57.909Z,26.90
2022-08-01T12:58:16.109Z,26.80
2022-08-01T13:03:21.406Z,26.60
2022-08-01T13:08:30.073Z,26.50
2022-08-01T13:13:41.129Z,26.20
2022-08-01T13:18:52.895Z,26.20
2022-08-01T13:24:10.712Z,26.50
2022-08-01T13:29:16.153Z,26.90
2022-08-01T13:34:18.867Z,27.10
2022-08-01T13:39:39.936Z,27.20
2022-08-01T13:44:46.376Z,27.30
2022-08-01T13:49:49.057Z,26.90
2022-08-01T13:54:51.732Z,27.20
2022-08-01T13:59:54.511Z,27.40
2022-08-01T14:04:59.515Z,26.70
2022-08-01T14:10:18.051Z,26.60
2022-08-01T14:15:37.758Z,26.30
2022-08-01T14:20:42.146Z,26.20
2022-08-01T14:26:03.659Z,25.90
2022-08-01T14:31:08.974Z,26.00
2022-08-01T14:36:29.222Z,26.30
2022-08-01T14:41:33.507Z,26.10
2022-08-01T14:46:36.048Z,26.20
2022-08-01T14:51:48.191Z,25.90
2022-08-01T14:56:52.852Z,25.80
2022-08-01T15:01:55.392Z,25.60
2022-08-01T15:06:58.161Z,25.50
2022-08-01T15:12:00.731Z,26.00
2022-08-01T15:17:03.543Z,26.30
2022-08-01T15:22:06.778Z,26.20
2022-08-01T15:27:11.257Z,25.80
2022-08-01T15:32:13.796Z,25.60
2022-08-01T15:37:16.453Z,25.60
2022-08-01T15:42:20.226Z,25.50
2022-08-01T15:47:28.319Z,25.60
2022-08-01T15:52:32.510Z,25.60
2022-08-01T15:57:35.262Z,25.50
2022-08-01T16:02:37.877Z,25.20
2022-08-01T16:07:58.001Z,25.00
2022-08-01T16:13:06.975Z,24.90
2022-08-01T16:18:13.331Z,24.60
2022-08-01T16:23:15.980Z,24.50
2022-08-01T16:28:19.355Z,24.60
2022-08-01T16:33:47.536Z,24.60
2022-08-01T16:38:46.032Z,24.60
2022-08-01T16:43:53.042Z,24.70
2022-08-01T16:48:57.170Z,24.60
2022-08-01T16:54:00.098Z,24.50
2022-08-01T16:59:02.897Z,24.30
2022-08-01T17:04:05.853Z,24.20
2022-08-01T17:09:09.445Z,24.20
2022-08-01T17:14:12.281Z,24.10
2022-08-01T17:19:15.113Z,23.90
2022-08-01T17:24:17.703Z,23.70
2022-08-01T17:29:20.349Z,23.70
2022-08-01T17:34:23.228Z,23.60
2022-08-01T17:39:35.066Z,23.60
2022-08-01T17:44:49.039Z,23.50
2022-08-01T17:49:55.019Z,23.50
2022-08-01T17:54:58.684Z,23.40
2022-08-01T18:00:01.294Z,23.30
2022-08-01T18:05:18.063Z,23.30
2022-08-01T18:10:20.762Z,23.10
2022-08-01T18:15:26.105Z,23.10
2022-08-01T18:20:30.147Z,22.90
2022-08-01T18:25:34.036Z,22.90
2022-08-01T18:30:36.687Z,22.70
2022-08-01T18:35:53.810Z,22.60
2022-08-01T18:40:56.973Z,22.60
2022-08-01T18:46:01.323Z,22.50
2022-08-01T18:51:04.124Z,22.50
2022-08-01T18:56:12.192Z,22.40
2022-08-01T19:01:15.111Z,22.30
2022-08-01T19:06:17.679Z,22.30
2022-08-01T19:11:20.427Z,22.10
2022-08-01T19:16:23.646Z,22.10
2022-08-01T19:21:26.363Z,22.10
2022-08-01T19:26:29.589Z,22.10
2022-08-01T19:31:32.813Z,22.00
2022-08-01T19:36:38.964Z,21.90
2022-08-01T19:41:42.505Z,21.90
2022-08-01T19:46:45.431Z,21.90
2022-08-01T19:51:53.215Z,21.80
2022-08-01T19:56:58.141Z,21.60
2022-08-01T20:02:01.876Z,21.60
2022-08-01T20:07:05.250Z,21.50
2022-08-01T20:12:08.987Z,21.40
2022-08-01T20:17:11.921Z,21.20
2022-08-01T20:22:16.699Z,21.10
2022-08-01T20:27:20.637Z,21.00
2022-08-01T20:32:27.957Z,21.00
2022-08-01T20:38:03.946Z,20.90
2022-08-01T20:42:58.233Z,20.80
2022-08-01T20:48:01.637Z,20.80
2022-08-01T20:53:04.347Z,20.70
2022-08-01T20:58:07.873Z,20.70
2022-08-01T21:03:20.125Z,20.70
2022-08-01T21:08:26.995Z,20.80
2022-08-01T21:13:41.931Z,20.80
2022-08-01T21:19:18.181Z,20.80
2022-08-01T21:24:23.529Z,20.70
2022-08-01T21:29:26.731Z,20.70
2022-08-01T21:34:30.204Z,20.80
2022-08-01T21:39:34.000Z,20.70
2022-08-01T21:44:40.024Z,20.70
2022-08-01T21:49:43.099Z,20.70
2022-08-01T21:54:59.956Z,20.70
2022-08-01T22:00:25.834Z,20.70
2022-08-01T22:05:50.560Z,20.70
2022-08-01T22:10:59.254Z,20.70
2022-08-01T22:16:04.111Z,20.70
2022-08-01T22:21:08.210Z,20.60
2022-08-01T22:26:11.964Z,20.70
2022-08-01T22:31:16.927Z,20.60
2022-08-01T22:36:20.916Z,20.60
2022-08-01T22:41:29.209Z,20.60
2022-08-01T22:47:04.477Z,20.50
2022-08-01T22:52:24.007Z,20.50
2022-08-01T22:57:51.678Z,20.50
2022-08-01T23:02:58.393Z,20.50
2022-08-01T23:08:04.563Z,20.50
2022-08-01T23:13:08.028Z,20.50
2022-08-01T23:18:11.694Z,20.50
2022-08-01T23:23:15.822Z,20.50
2022-08-01T23:28:18.949Z,20.40
2022-08-01T23:33:21.598Z,20.40
2022-08-01T23:50:36.064Z,20.50
2022-08-01T23:55:39.692Z,20.30
